createdAt,value
2019-03-25T00:08:34.737Z,19.60
2019-03-25T00:35:32.578Z,19.60
2019-03-25T00:48:39.777Z,19.60
2019-03-25T01:01:46.980Z,19.60
2019-03-25T01:14:54.190Z,19.60
2019-03-25T01:28:01.386Z,19.70
2019-03-25T01:41:25.317Z,19.70
2019-03-25T01:54:48.158Z,19.70
2019-03-25T02:08:10.921Z,19.70
2019-03-25T02:21:33.775Z,19.60
2019-03-25T02:34:56.616Z,19.70
2019-03-25T02:48:19.430Z,19.70
2019-03-25T03:01:42.241Z,19.70
2019-03-25T03:15:05.063Z,19.70
2019-03-25T03:28:27.855Z,19.60
2019-03-25T03:41:50.689Z,19.70
2019-03-25T03:55:13.486Z,19.70
2019-03-25T04:08:36.298Z,19.70
2019-03-25T04:21:59.086Z,19.70
2019-03-25T04:35:21.919Z,19.70
2019-03-25T04:48:44.759Z,19.70
2019-03-25T05:15:09.217Z,19.70
2019-03-25T05:28:16.456Z,19.70
2019-03-25T05:41:23.720Z,19.70
2019-03-25T05:54:30.948Z,19.70
2019-03-25T06:07:38.184Z,19.70
2019-03-25T06:20:45.409Z,19.70
2019-03-25T06:34:08.973Z,19.70
2019-03-25T06:47:31.802Z,19.70
2019-03-25T07:00:54.605Z,19.70
2019-03-25T07:14:17.426Z,19.70
2019-03-25T07:27:40.267Z,19.70
2019-03-25T07:41:03.094Z,19.70
2019-03-25T07:54:25.873Z,19.70
2019-03-25T08:07:48.845Z,19.80
2019-03-25T08:21:11.541Z,19.80
2019-03-25T08:34:34.341Z,19.90
2019-03-25T09:00:58.725Z,19.80
2019-03-25T09:14:05.932Z,19.80
2019-03-25T09:27:13.118Z,19.80
2019-03-25T09:40:20.321Z,19.90
2019-03-25T09:53:27.569Z,20.00
2019-03-25T10:19:37.385Z,20.00
2019-03-25T10:32:44.602Z,19.80
2019-03-25T10:45:51.825Z,19.70
2019-03-25T10:58:59.016Z,19.70
2019-03-25T11:12:06.278Z,19.60
2019-03-25T11:25:13.506Z,19.60
2019-03-25T11:38:37.146Z,19.60
2019-03-25T11:52:00.043Z,19.50
2019-03-25T12:05:22.759Z,19.40
2019-03-25T12:18:45.597Z,19.40
2019-03-25T12:32:08.382Z,19.70
2019-03-25T12:45:31.187Z,20.00
2019-03-25T12:58:54.005Z,20.10
2019-03-25T13:12:16.834Z,20.20
2019-03-25T13:25:39.765Z,20.20
2019-03-25T13:39:02.524Z,20.20
2019-03-25T13:52:25.279Z,20.20
2019-03-25T14:05:48.150Z,20.30
2019-03-25T14:19:10.980Z,20.30
2019-03-25T14:32:33.776Z,20.40
2019-03-25T14:45:56.576Z,20.40
2019-03-25T15:12:21.034Z,20.30
2019-03-25T15:38:33.852Z,20.40
2019-03-25T15:51:41.087Z,20.50
2019-03-25T16:04:48.304Z,20.50
2019-03-25T16:17:55.519Z,20.50
2019-03-25T16:31:02.713Z,20.50
2019-03-25T16:44:09.973Z,20.40
2019-03-25T16:57:33.668Z,20.40
2019-03-25T17:10:56.687Z,20.40
2019-03-25T17:24:19.290Z,20.50
2019-03-25T17:37:42.103Z,20.60
2019-03-25T17:51:04.906Z,20.50
2019-03-25T18:04:27.721Z,20.10
2019-03-25T18:17:50.545Z,19.50
2019-03-25T18:31:13.343Z,19.50
2019-03-25T18:57:37.897Z,19.80
2019-03-25T19:10:45.241Z,19.80
2019-03-25T19:36:57.244Z,19.90
2019-03-25T19:50:04.636Z,19.90
2019-03-25T20:03:12.005Z,19.90
2019-03-25T20:16:19.395Z,19.90
2019-03-25T20:42:29.380Z,19.80
2019-03-25T20:55:36.655Z,19.90
2019-03-25T21:08:43.894Z,20.00
2019-03-25T21:21:51.171Z,20.00
2019-03-25T21:34:58.528Z,20.00
2019-03-25T21:48:22.616Z,20.00
2019-03-25T22:01:45.482Z,20.00
2019-03-25T22:15:08.276Z,20.00
2019-03-25T22:28:31.065Z,20.00
2019-03-25T22:41:53.867Z,20.00
2019-03-25T22:55:16.668Z,20.00
2019-03-25T23:08:39.504Z,20.00
2019-03-25T23:35:03.982Z,20.00
